DAON

Zenata – Messali El Hadj Airport

Tlemcen, Algeria
TAF DAON 242300Z 2500/2524 VRB02KT 9999 FEW010 PROB40 TEMPO 2500/2508 3000 BR PROB40 TEMPO 2502/2507 0200 FG BKN010 BECMG 2512/2514 36014KT FEW026
Issued Valid From Valid To
Sep-24 @ 23:00 UTC
(2 hours ago)
Sep-25 @ 00:00 UTC
(an hour ago)
Sep-26 @ 00:00 UTC
(in 23 hours)
Sep-25 @ 00:00 to Sep-25 @ 12:00
TAF DAON 242300Z 2500/2524 VRB02KT 9999 FEW010
Wind Visibility Clouds
Variable at 2 knots 10,000+ meters
  • Few at 1,000' AGL
Temporary  (Probability 40%) Sep-25 @ 00:00 to Sep-25 @ 08:00
PROB40 TEMPO 2500/2508 3000 BR
Visibility Conditions
2,993 meters
  • Mist
Temporary  (Probability 40%) Sep-25 @ 02:00 to Sep-25 @ 07:00
PROB40 TEMPO 2502/2507 0200 FG BKN010
Visibility Clouds Conditions
193 meters
  • Broken at 1,000' AGL
  • Fog
Becoming Sep-25 @ 12:00 to Sep-26 @ 00:00
BECMG 2512/2514 36014KT FEW026
Wind Visibility Clouds
360° at 14 knots 10,000+ meters
  • Few at 2,600' AGL
TAF DAON 242300Z 2500/2524 VRB02KT 9999 FEW010 PROB40 TEMPO 2500/2508 3000 BR PROB40 TEMPO 2502/2507 0200 FG BKN010 BECMG 2512/2514 36014KT FEW026
Issued Sep-24 @ 23:00 UTC
(2 hours ago)
Valid From Sep-25 @ 00:00 UTC
(an hour ago)
Valid To Sep-26 @ 00:00 UTC
(in 23 hours)
Sep-25 @ 00:00 - Sep-25 @ 12:00
Wind Visibility
Variable at 2 knots 10,000+ meters
Clouds
  • Few at 1,000' AGL
Probability 40% Temporary Sep-25 @ 00:00 - Sep-25 @ 08:00
Conditions
  • Mist
Probability 40% Temporary Sep-25 @ 02:00 - Sep-25 @ 07:00
Clouds
  • Broken at 1,000' AGL
Conditions
  • Fog
Becoming Sep-25 @ 12:00 - Sep-26 @ 00:00
Wind Visibility
360° at 14 knots 10,000+ meters
Clouds
  • Few at 2,600' AGL